sensor_id;sensor_type;location;lat;lon;timestamp;P1;durP1;ratioP1;P2;durP2;ratioP2
14686;SDS011;7431;49.440;11.084;2023-02-28T00:00:50;22.77;;;17.58;;
14686;SDS011;7431;49.440;11.084;2023-02-28T00:03:16;21.67;;;17.40;;
14686;SDS011;7431;49.440;11.084;2023-02-28T00:05:42;21.50;;;16.73;;
14686;SDS011;7431;49.440;11.084;2023-02-28T00:08:08;20.63;;;16.50;;
14686;SDS011;7431;49.440;11.084;2023-02-28T00:10:35;20.55;;;16.98;;
14686;SDS011;7431;49.440;11.084;2023-02-28T00:13:04;23.15;;;17.42;;
14686;SDS011;7431;49.440;11.084;2023-02-28T00:15:31;19.45;;;15.65;;
14686;SDS011;7431;49.440;11.084;2023-02-28T00:17:58;20.77;;;16.23;;
14686;SDS011;7431;49.440;11.084;2023-02-28T00:20:24;20.50;;;16.17;;
14686;SDS011;7431;49.440;11.084;2023-02-28T00:22:51;22.38;;;16.42;;
14686;SDS011;7431;49.440;11.084;2023-02-28T00:25:18;21.27;;;16.88;;
14686;SDS011;7431;49.440;11.084;2023-02-28T00:27:45;20.92;;;16.38;;
14686;SDS011;7431;49.440;11.084;2023-02-28T00:30:12;21.05;;;16.45;;
14686;SDS011;7431;49.440;11.084;2023-02-28T00:32:39;20.20;;;16.17;;
14686;SDS011;7431;49.440;11.084;2023-02-28T00:35:08;20.63;;;15.70;;
14686;SDS011;7431;49.440;11.084;2023-02-28T00:37:35;20.70;;;15.95;;
14686;SDS011;7431;49.440;11.084;2023-02-28T00:40:01;19.98;;;15.98;;
14686;SDS011;7431;49.440;11.084;2023-02-28T00:42:29;20.92;;;16.58;;
14686;SDS011;7431;49.440;11.084;2023-02-28T00:44:55;19.00;;;15.75;;
14686;SDS011;7431;49.440;11.084;2023-02-28T00:47:21;19.77;;;15.88;;
14686;SDS011;7431;49.440;11.084;2023-02-28T00:49:47;21.23;;;16.08;;
14686;SDS011;7431;49.440;11.084;2023-02-28T00:52:13;19.98;;;15.65;;
14686;SDS011;7431;49.440;11.084;2023-02-28T00:54:39;18.38;;;15.63;;
14686;SDS011;7431;49.440;11.084;2023-02-28T00:57:05;20.20;;;16.27;;
14686;SDS011;7431;49.440;11.084;2023-02-28T00:59:31;19.67;;;15.63;;
14686;SDS011;7431;49.440;11.084;2023-02-28T01:01:57;18.80;;;14.77;;
14686;SDS011;7431;49.440;11.084;2023-02-28T01:04:23;22.10;;;16.20;;
14686;SDS011;7431;49.440;11.084;2023-02-28T01:06:49;20.13;;;15.50;;
14686;SDS011;7431;49.440;11.084;2023-02-28T01:09:15;19.17;;;15.35;;
14686;SDS011;7431;49.440;11.084;2023-02-28T01:11:42;21.15;;;16.35;;
14686;SDS011;7431;49.440;11.084;2023-02-28T01:14:11;18.17;;;15.38;;
14686;SDS011;7431;49.440;11.084;2023-02-28T01:16:37;19.70;;;15.07;;
14686;SDS011;7431;49.440;11.084;2023-02-28T01:19:03;19.40;;;15.45;;
14686;SDS011;7431;49.440;11.084;2023-02-28T01:21:29;19.65;;;15.05;;
14686;SDS011;7431;49.440;11.084;2023-02-28T01:23:56;19.55;;;15.15;;
14686;SDS011;7431;49.440;11.084;2023-02-28T01:26:23;18.95;;;15.32;;
14686;SDS011;7431;49.440;11.084;2023-02-28T01:28:49;19.55;;;15.85;;
14686;SDS011;7431;49.440;11.084;2023-02-28T01:31:16;19.25;;;15.27;;
14686;SDS011;7431;49.440;11.084;2023-02-28T01:33:43;19.45;;;14.95;;
14686;SDS011;7431;49.440;11.084;2023-02-28T01:36:13;17.48;;;14.80;;
14686;SDS011;7431;49.440;11.084;2023-02-28T01:38:39;18.25;;;14.57;;
14686;SDS011;7431;49.440;11.084;2023-02-28T01:41:06;18.83;;;15.02;;
14686;SDS011;7431;49.440;11.084;2023-02-28T01:43:52;19.45;;;15.25;;
14686;SDS011;7431;49.440;11.084;2023-02-28T01:46:18;18.05;;;14.50;;
14686;SDS011;7431;49.440;11.084;2023-02-28T01:49:07;19.02;;;15.13;;
14686;SDS011;7431;49.440;11.084;2023-02-28T01:51:32;17.90;;;14.48;;
14686;SDS011;7431;49.440;11.084;2023-02-28T01:54:00;18.33;;;14.88;;
14686;SDS011;7431;49.440;11.084;2023-02-28T01:56:28;18.52;;;14.70;;
14686;SDS011;7431;49.440;11.084;2023-02-28T01:58:54;20.02;;;14.88;;
14686;SDS011;7431;49.440;11.084;2023-02-28T02:01:21;20.40;;;15.45;;
14686;SDS011;7431;49.440;11.084;2023-02-28T02:03:51;17.67;;;14.60;;
14686;SDS011;7431;49.440;11.084;2023-02-28T02:06:28;17.05;;;13.75;;
14686;SDS011;7431;49.440;11.084;2023-02-28T02:08:55;19.92;;;15.35;;
14686;SDS011;7431;49.440;11.084;2023-02-28T02:11:22;17.95;;;14.88;;
14686;SDS011;7431;49.440;11.084;2023-02-28T02:22:00;19.05;;;14.13;;
14686;SDS011;7431;49.440;11.084;2023-02-28T02:35:12;16.77;;;13.25;;
14686;SDS011;7431;49.440;11.084;2023-02-28T02:37:40;16.85;;;13.90;;
14686;SDS011;7431;49.440;11.084;2023-02-28T02:40:14;16.70;;;13.55;;
14686;SDS011;7431;49.440;11.084;2023-02-28T02:42:45;18.70;;;14.23;;
14686;SDS011;7431;49.440;11.084;2023-02-28T02:45:18;17.23;;;13.73;;
14686;SDS011;7431;49.440;11.084;2023-02-28T02:47:47;17.42;;;14.02;;
14686;SDS011;7431;49.440;11.084;2023-02-28T02:50:16;18.40;;;14.02;;
14686;SDS011;7431;49.440;11.084;2023-02-28T02:52:45;18.35;;;14.40;;
14686;SDS011;7431;49.440;11.084;2023-02-28T02:55:13;18.17;;;13.80;;
14686;SDS011;7431;49.440;11.084;2023-02-28T03:00:09;17.75;;;13.73;;
14686;SDS011;7431;49.440;11.084;2023-02-28T03:02:36;17.27;;;13.55;;
14686;SDS011;7431;49.440;11.084;2023-02-28T03:05:08;17.55;;;14.10;;
14686;SDS011;7431;49.440;11.084;2023-02-28T03:07:38;18.52;;;14.02;;
14686;SDS011;7431;49.440;11.084;2023-02-28T03:10:25;17.35;;;13.80;;
14686;SDS011;7431;49.440;11.084;2023-02-28T03:12:52;17.38;;;13.32;;
14686;SDS011;7431;49.440;11.084;2023-02-28T03:15:32;16.52;;;13.48;;
14686;SDS011;7431;49.440;11.084;2023-02-28T03:18:06;16.20;;;13.13;;
14686;SDS011;7431;49.440;11.084;2023-02-28T03:23:07;16.50;;;13.27;;
14686;SDS011;7431;49.440;11.084;2023-02-28T03:30:49;16.27;;;12.57;;
14686;SDS011;7431;49.440;11.084;2023-02-28T03:33:20;16.98;;;13.23;;
14686;SDS011;7431;49.440;11.084;2023-02-28T03:35:50;16.90;;;12.85;;
14686;SDS011;7431;49.440;11.084;2023-02-28T03:38:18;16.05;;;13.23;;
14686;SDS011;7431;49.440;11.084;2023-02-28T03:40:48;17.50;;;13.75;;
14686;SDS011;7431;49.440;11.084;2023-02-28T03:43:15;17.65;;;12.93;;
14686;SDS011;7431;49.440;11.084;2023-02-28T03:45:43;17.58;;;13.32;;
14686;SDS011;7431;49.440;11.084;2023-02-28T03:50:47;16.52;;;12.80;;
14686;SDS011;7431;49.440;11.084;2023-02-28T03:53:16;16.48;;;13.07;;
14686;SDS011;7431;49.440;11.084;2023-02-28T03:55:49;18.38;;;13.70;;
14686;SDS011;7431;49.440;11.084;2023-02-28T04:00:57;17.35;;;13.23;;
14686;SDS011;7431;49.440;11.084;2023-02-28T04:03:25;16.20;;;12.15;;
14686;SDS011;7431;49.440;11.084;2023-02-28T04:05:52;15.15;;;12.77;;
14686;SDS011;7431;49.440;11.084;2023-02-28T04:08:18;14.38;;;11.80;;
14686;SDS011;7431;49.440;11.084;2023-02-28T04:10:45;15.55;;;12.70;;
14686;SDS011;7431;49.440;11.084;2023-02-28T04:13:13;15.90;;;12.27;;
14686;SDS011;7431;49.440;11.084;2023-02-28T04:15:39;15.15;;;12.07;;
14686;SDS011;7431;49.440;11.084;2023-02-28T04:18:05;16.23;;;12.70;;
14686;SDS011;7431;49.440;11.084;2023-02-28T04:20:31;15.52;;;12.00;;
14686;SDS011;7431;49.440;11.084;2023-02-28T04:22:57;16.05;;;12.73;;
14686;SDS011;7431;49.440;11.084;2023-02-28T04:25:23;17.40;;;12.85;;
14686;SDS011;7431;49.440;11.084;2023-02-28T04:27:49;15.02;;;12.07;;
14686;SDS011;7431;49.440;11.084;2023-02-28T04:30:15;15.73;;;12.25;;
14686;SDS011;7431;49.440;11.084;2023-02-28T04:32:41;16.07;;;12.47;;
14686;SDS011;7431;49.440;11.084;2023-02-28T04:35:07;15.13;;;12.50;;
14686;SDS011;7431;49.440;11.084;2023-02-28T04:37:34;15.20;;;12.10;;
14686;SDS011;7431;49.440;11.084;2023-02-28T04:40:01;13.85;;;11.70;;
14686;SDS011;7431;49.440;11.084;2023-02-28T04:42:27;14.55;;;11.30;;
14686;SDS011;7431;49.440;11.084;2023-02-28T04:45:00;15.20;;;11.77;;
14686;SDS011;7431;49.440;11.084;2023-02-28T04:47:26;15.10;;;11.88;;
14686;SDS011;7431;49.440;11.084;2023-02-28T04:49:52;14.70;;;11.95;;
14686;SDS011;7431;49.440;11.084;2023-02-28T04:52:18;15.55;;;11.70;;
14686;SDS011;7431;49.440;11.084;2023-02-28T04:54:44;14.27;;;11.85;;
14686;SDS011;7431;49.440;11.084;2023-02-28T04:57:10;14.77;;;11.55;;
14686;SDS011;7431;49.440;11.084;2023-02-28T04:59:36;14.68;;;11.70;;
14686;SDS011;7431;49.440;11.084;2023-02-28T05:02:02;14.52;;;11.55;;
14686;SDS011;7431;49.440;11.084;2023-02-28T05:04:32;14.00;;;11.07;;
14686;SDS011;7431;49.440;11.084;2023-02-28T05:06:59;14.50;;;11.35;;
14686;SDS011;7431;49.440;11.084;2023-02-28T05:09:25;14.27;;;11.23;;
14686;SDS011;7431;49.440;11.084;2023-02-28T05:11:51;14.30;;;11.00;;
14686;SDS011;7431;49.440;11.084;2023-02-28T05:14:17;14.65;;;11.65;;
14686;SDS011;7431;49.440;11.084;2023-02-28T05:16:50;14.48;;;11.48;;
14686;SDS011;7431;49.440;11.084;2023-02-28T05:19:25;13.85;;;11.20;;
14686;SDS011;7431;49.440;11.084;2023-02-28T05:21:52;14.18;;;10.82;;
14686;SDS011;7431;49.440;11.084;2023-02-28T05:24:19;13.07;;;10.80;;
14686;SDS011;7431;49.440;11.084;2023-02-28T05:26:48;13.90;;;10.75;;
14686;SDS011;7431;49.440;11.084;2023-02-28T05:29:14;14.00;;;10.98;;
14686;SDS011;7431;49.440;11.084;2023-02-28T05:31:40;14.63;;;11.63;;
14686;SDS011;7431;49.440;11.084;2023-02-28T05:34:06;12.80;;;10.63;;
14686;SDS011;7431;49.440;11.084;2023-02-28T05:36:32;13.68;;;11.10;;
14686;SDS011;7431;49.440;11.084;2023-02-28T05:38:59;11.98;;;10.38;;
14686;SDS011;7431;49.440;11.084;2023-02-28T05:41:25;13.68;;;10.98;;
14686;SDS011;7431;49.440;11.084;2023-02-28T05:43:51;12.75;;;10.60;;
14686;SDS011;7431;49.440;11.084;2023-02-28T05:46:17;12.80;;;10.50;;
14686;SDS011;7431;49.440;11.084;2023-02-28T05:48:45;14.30;;;11.27;;
14686;SDS011;7431;49.440;11.084;2023-02-28T05:51:11;12.38;;;10.05;;
14686;SDS011;7431;49.440;11.084;2023-02-28T05:53:37;13.25;;;10.25;;
14686;SDS011;7431;49.440;11.084;2023-02-28T05:56:03;11.90;;;9.85;;
14686;SDS011;7431;49.440;11.084;2023-02-28T05:58:29;12.60;;;10.35;;
14686;SDS011;7431;49.440;11.084;2023-02-28T06:00:56;13.23;;;9.93;;
14686;SDS011;7431;49.440;11.084;2023-02-28T06:03:22;14.38;;;10.65;;
14686;SDS011;7431;49.440;11.084;2023-02-28T06:05:49;12.43;;;10.03;;
14686;SDS011;7431;49.440;11.084;2023-02-28T06:08:15;12.45;;;10.13;;
14686;SDS011;7431;49.440;11.084;2023-02-28T06:10:41;12.70;;;10.25;;
14686;SDS011;7431;49.440;11.084;2023-02-28T06:13:07;13.38;;;10.25;;
14686;SDS011;7431;49.440;11.084;2023-02-28T06:15:37;12.75;;;10.18;;
14686;SDS011;7431;49.440;11.084;2023-02-28T06:18:03;12.48;;;9.85;;
14686;SDS011;7431;49.440;11.084;2023-02-28T06:20:29;12.23;;;9.95;;
14686;SDS011;7431;49.440;11.084;2023-02-28T06:22:56;13.32;;;10.40;;
14686;SDS011;7431;49.440;11.084;2023-02-28T06:25:26;12.95;;;9.80;;
14686;SDS011;7431;49.440;11.084;2023-02-28T06:27:52;11.88;;;9.73;;
14686;SDS011;7431;49.440;11.084;2023-02-28T06:30:21;12.40;;;10.07;;
14686;SDS011;7431;49.440;11.084;2023-02-28T06:32:50;12.83;;;10.13;;
14686;SDS011;7431;49.440;11.084;2023-02-28T06:35:16;11.68;;;9.85;;
14686;SDS011;7431;49.440;11.084;2023-02-28T06:37:43;12.10;;;9.88;;
14686;SDS011;7431;49.440;11.084;2023-02-28T06:40:09;12.77;;;9.93;;
14686;SDS011;7431;49.440;11.084;2023-02-28T06:42:35;13.30;;;10.27;;
14686;SDS011;7431;49.440;11.084;2023-02-28T06:45:01;12.25;;;9.88;;
14686;SDS011;7431;49.440;11.084;2023-02-28T06:47:33;11.95;;;9.43;;
14686;SDS011;7431;49.440;11.084;2023-02-28T06:49:59;12.40;;;9.35;;
14686;SDS011;7431;49.440;11.084;2023-02-28T06:52:26;13.30;;;10.25;;
14686;SDS011;7431;49.440;11.084;2023-02-28T06:54:52;13.02;;;10.00;;
14686;SDS011;7431;49.440;11.084;2023-02-28T06:57:25;17.30;;;11.43;;
14686;SDS011;7431;49.440;11.084;2023-02-28T06:59:51;18.08;;;10.35;;
14686;SDS011;7431;49.440;11.084;2023-02-28T07:02:17;14.80;;;10.70;;
14686;SDS011;7431;49.440;11.084;2023-02-28T07:04:43;13.93;;;9.57;;
14686;SDS011;7431;49.440;11.084;2023-02-28T07:07:09;16.60;;;10.15;;
14686;SDS011;7431;49.440;11.084;2023-02-28T07:09:35;14.55;;;9.90;;
14686;SDS011;7431;49.440;11.084;2023-02-28T07:12:01;14.52;;;9.43;;
14686;SDS011;7431;49.440;11.084;2023-02-28T07:14:27;15.57;;;9.60;;
14686;SDS011;7431;49.440;11.084;2023-02-28T07:16:53;12.80;;;9.18;;
14686;SDS011;7431;49.440;11.084;2023-02-28T07:19:19;14.60;;;9.70;;
14686;SDS011;7431;49.440;11.084;2023-02-28T07:21:45;14.05;;;8.93;;
14686;SDS011;7431;49.440;11.084;2023-02-28T07:24:11;13.18;;;9.30;;
14686;SDS011;7431;49.440;11.084;2023-02-28T07:26:40;14.07;;;9.35;;
14686;SDS011;7431;49.440;11.084;2023-02-28T07:29:06;14.23;;;9.23;;
14686;SDS011;7431;49.440;11.084;2023-02-28T07:31:32;12.25;;;8.93;;
14686;SDS011;7431;49.440;11.084;2023-02-28T07:33:58;12.70;;;9.02;;
14686;SDS011;7431;49.440;11.084;2023-02-28T07:36:24;14.27;;;9.20;;
14686;SDS011;7431;49.440;11.084;2023-02-28T07:38:50;10.55;;;8.20;;
14686;SDS011;7431;49.440;11.084;2023-02-28T07:41:18;13.75;;;9.38;;
14686;SDS011;7431;49.440;11.084;2023-02-28T07:43:44;10.07;;;8.18;;
14686;SDS011;7431;49.440;11.084;2023-02-28T07:46:11;12.02;;;9.38;;
14686;SDS011;7431;49.440;11.084;2023-02-28T07:48:37;13.70;;;9.25;;
14686;SDS011;7431;49.440;11.084;2023-02-28T07:51:03;12.50;;;8.48;;
14686;SDS011;7431;49.440;11.084;2023-02-28T07:53:30;16.23;;;8.88;;
14686;SDS011;7431;49.440;11.084;2023-02-28T07:55:59;11.63;;;8.35;;
14686;SDS011;7431;49.440;11.084;2023-02-28T07:58:25;11.88;;;8.18;;
14686;SDS011;7431;49.440;11.084;2023-02-28T08:00:52;10.55;;;8.32;;
14686;SDS011;7431;49.440;11.084;2023-02-28T08:03:18;11.15;;;8.07;;
14686;SDS011;7431;49.440;11.084;2023-02-28T08:05:45;12.80;;;8.40;;
14686;SDS011;7431;49.440;11.084;2023-02-28T08:08:11;12.15;;;9.00;;
14686;SDS011;7431;49.440;11.084;2023-02-28T08:10:37;10.95;;;8.50;;
14686;SDS011;7431;49.440;11.084;2023-02-28T08:13:03;12.40;;;8.48;;
14686;SDS011;7431;49.440;11.084;2023-02-28T08:15:29;12.13;;;8.88;;
14686;SDS011;7431;49.440;11.084;2023-02-28T08:17:55;9.07;;;8.05;;
14686;SDS011;7431;49.440;11.084;2023-02-28T08:20:22;9.68;;;7.88;;
14686;SDS011;7431;49.440;11.084;2023-02-28T08:22:48;12.18;;;8.30;;
14686;SDS011;7431;49.440;11.084;2023-02-28T08:25:14;11.02;;;8.38;;
14686;SDS011;7431;49.440;11.084;2023-02-28T08:27:40;10.02;;;7.85;;
14686;SDS011;7431;49.440;11.084;2023-02-28T08:30:07;10.07;;;7.72;;
14686;SDS011;7431;49.440;11.084;2023-02-28T08:32:33;10.13;;;7.72;;
14686;SDS011;7431;49.440;11.084;2023-02-28T08:34:59;13.70;;;8.98;;
14686;SDS011;7431;49.440;11.084;2023-02-28T08:37:25;10.10;;;8.40;;
14686;SDS011;7431;49.440;11.084;2023-02-28T08:39:51;11.15;;;7.63;;
14686;SDS011;7431;49.440;11.084;2023-02-28T08:42:17;10.27;;;7.47;;
14686;SDS011;7431;49.440;11.084;2023-02-28T08:44:43;9.95;;;7.20;;
14686;SDS011;7431;49.440;11.084;2023-02-28T08:47:09;10.02;;;7.30;;
14686;SDS011;7431;49.440;11.084;2023-02-28T08:49:36;8.23;;;7.25;;
14686;SDS011;7431;49.440;11.084;2023-02-28T08:52:02;10.77;;;7.85;;
14686;SDS011;7431;49.440;11.084;2023-02-28T08:54:28;8.82;;;7.47;;
14686;SDS011;7431;49.440;11.084;2023-02-28T08:56:56;9.70;;;7.35;;
14686;SDS011;7431;49.440;11.084;2023-02-28T08:59:22;8.90;;;7.13;;
14686;SDS011;7431;49.440;11.084;2023-02-28T09:01:48;9.48;;;7.35;;
14686;SDS011;7431;49.440;11.084;2023-02-28T09:04:14;8.88;;;6.85;;
14686;SDS011;7431;49.440;11.084;2023-02-28T09:06:40;8.38;;;7.15;;
14686;SDS011;7431;49.440;11.084;2023-02-28T09:09:06;9.32;;;7.05;;
14686;SDS011;7431;49.440;11.084;2023-02-28T09:11:34;8.63;;;7.05;;
14686;SDS011;7431;49.440;11.084;2023-02-28T09:14:01;8.05;;;6.45;;
14686;SDS011;7431;49.440;11.084;2023-02-28T09:16:28;8.93;;;7.10;;
14686;SDS011;7431;49.440;11.084;2023-02-28T09:18:54;8.52;;;6.85;;
14686;SDS011;7431;49.440;11.084;2023-02-28T09:21:20;8.30;;;6.93;;
14686;SDS011;7431;49.440;11.084;2023-02-28T09:23:47;8.23;;;6.53;;
14686;SDS011;7431;49.440;11.084;2023-02-28T09:26:21;8.70;;;6.75;;
14686;SDS011;7431;49.440;11.084;2023-02-28T09:28:48;7.47;;;6.72;;
14686;SDS011;7431;49.440;11.084;2023-02-28T09:31:15;8.68;;;6.95;;
14686;SDS011;7431;49.440;11.084;2023-02-28T09:33:42;7.50;;;6.63;;
14686;SDS011;7431;49.440;11.084;2023-02-28T09:36:08;8.13;;;6.47;;
14686;SDS011;7431;49.440;11.084;2023-02-28T09:38:34;7.90;;;6.30;;
14686;SDS011;7431;49.440;11.084;2023-02-28T09:41:01;7.03;;;5.88;;
14686;SDS011;7431;49.440;11.084;2023-02-28T09:43:29;8.13;;;6.47;;
14686;SDS011;7431;49.440;11.084;2023-02-28T09:48:38;7.95;;;6.63;;
14686;SDS011;7431;49.440;11.084;2023-02-28T09:53:51;7.35;;;6.28;;
14686;SDS011;7431;49.440;11.084;2023-02-28T09:56:26;8.65;;;6.32;;
14686;SDS011;7431;49.440;11.084;2023-02-28T09:58:58;6.95;;;5.88;;
14686;SDS011;7431;49.440;11.084;2023-02-28T10:06:39;6.85;;;6.05;;
14686;SDS011;7431;49.440;11.084;2023-02-28T10:09:10;8.80;;;6.20;;
14686;SDS011;7431;49.440;11.084;2023-02-28T10:11:38;7.25;;;5.70;;
14686;SDS011;7431;49.440;11.084;2023-02-28T10:16:46;7.93;;;5.75;;
14686;SDS011;7431;49.440;11.084;2023-02-28T10:19:27;8.00;;;6.10;;
14686;SDS011;7431;49.440;11.084;2023-02-28T10:21:59;6.88;;;5.60;;
14686;SDS011;7431;49.440;11.084;2023-02-28T10:24:28;8.13;;;6.00;;
14686;SDS011;7431;49.440;11.084;2023-02-28T10:26:56;7.60;;;5.90;;
14686;SDS011;7431;49.440;11.084;2023-02-28T10:29:25;7.07;;;5.63;;
14686;SDS011;7431;49.440;11.084;2023-02-28T10:31:51;8.63;;;5.90;;
14686;SDS011;7431;49.440;11.084;2023-02-28T10:34:17;9.30;;;5.80;;
14686;SDS011;7431;49.440;11.084;2023-02-28T10:36:43;7.28;;;6.07;;
14686;SDS011;7431;49.440;11.084;2023-02-28T10:41:54;7.57;;;5.82;;
14686;SDS011;7431;49.440;11.084;2023-02-28T10:44:21;7.43;;;5.45;;
14686;SDS011;7431;49.440;11.084;2023-02-28T10:46:48;5.95;;;5.25;;
14686;SDS011;7431;49.440;11.084;2023-02-28T10:49:17;5.75;;;4.97;;
14686;SDS011;7431;49.440;11.084;2023-02-28T10:51:45;7.07;;;5.55;;
14686;SDS011;7431;49.440;11.084;2023-02-28T10:54:18;6.22;;;5.25;;
14686;SDS011;7431;49.440;11.084;2023-02-28T10:56:45;6.97;;;5.32;;
14686;SDS011;7431;49.440;11.084;2023-02-28T11:01:41;6.95;;;5.55;;
14686;SDS011;7431;49.440;11.084;2023-02-28T11:04:20;6.50;;;5.40;;
14686;SDS011;7431;49.440;11.084;2023-02-28T11:07:01;6.35;;;5.25;;
14686;SDS011;7431;49.440;11.084;2023-02-28T11:09:29;7.03;;;5.38;;
14686;SDS011;7431;49.440;11.084;2023-02-28T11:11:56;7.03;;;5.32;;
14686;SDS011;7431;49.440;11.084;2023-02-28T11:14:26;6.90;;;5.35;;
14686;SDS011;7431;49.440;11.084;2023-02-28T11:16:53;6.65;;;5.82;;
14686;SDS011;7431;49.440;11.084;2023-02-28T11:19:27;7.32;;;5.20;;
14686;SDS011;7431;49.440;11.084;2023-02-28T11:21:57;7.55;;;5.43;;
14686;SDS011;7431;49.440;11.084;2023-02-28T11:24:28;7.50;;;5.97;;
14686;SDS011;7431;49.440;11.084;2023-02-28T11:26:55;7.47;;;5.50;;
14686;SDS011;7431;49.440;11.084;2023-02-28T11:29:31;6.93;;;5.53;;
14686;SDS011;7431;49.440;11.084;2023-02-28T11:34:36;7.43;;;5.80;;
14686;SDS011;7431;49.440;11.084;2023-02-28T11:37:03;6.85;;;5.82;;
14686;SDS011;7431;49.440;11.084;2023-02-28T11:39:30;7.55;;;5.90;;
14686;SDS011;7431;49.440;11.084;2023-02-28T11:53:14;8.18;;;5.90;;
14686;SDS011;7431;49.440;11.084;2023-02-28T12:02:50;8.40;;;6.30;;
14686;SDS011;7431;49.440;11.084;2023-02-28T12:08:00;8.95;;;7.15;;
14686;SDS011;7431;49.440;11.084;2023-02-28T12:14:13;9.13;;;6.75;;
14686;SDS011;7431;49.440;11.084;2023-02-28T12:21:14;7.93;;;6.63;;
14686;SDS011;7431;49.440;11.084;2023-02-28T12:26:32;7.68;;;6.60;;
14686;SDS011;7431;49.440;11.084;2023-02-28T12:29:02;7.95;;;6.78;;
14686;SDS011;7431;49.440;11.084;2023-02-28T12:31:32;7.80;;;6.50;;
14686;SDS011;7431;49.440;11.084;2023-02-28T12:34:00;8.40;;;6.60;;
14686;SDS011;7431;49.440;11.084;2023-02-28T12:36:27;7.25;;;6.47;;
14686;SDS011;7431;49.440;11.084;2023-02-28T12:41:22;7.70;;;6.65;;
14686;SDS011;7431;49.440;11.084;2023-02-28T12:43:55;7.78;;;6.93;;
14686;SDS011;7431;49.440;11.084;2023-02-28T12:46:24;8.27;;;6.65;;
14686;SDS011;7431;49.440;11.084;2023-02-28T12:48:52;7.63;;;5.93;;
14686;SDS011;7431;49.440;11.084;2023-02-28T12:51:20;9.38;;;6.60;;
14686;SDS011;7431;49.440;11.084;2023-02-28T12:59:01;8.55;;;6.85;;
14686;SDS011;7431;49.440;11.084;2023-02-28T13:09:31;7.47;;;6.20;;
14686;SDS011;7431;49.440;11.084;2023-02-28T13:11:57;7.22;;;6.45;;
14686;SDS011;7431;49.440;11.084;2023-02-28T13:19:28;9.07;;;6.22;;
14686;SDS011;7431;49.440;11.084;2023-02-28T13:21:55;7.53;;;6.30;;
14686;SDS011;7431;49.440;11.084;2023-02-28T13:24:40;8.50;;;6.47;;
14686;SDS011;7431;49.440;11.084;2023-02-28T13:29:42;8.35;;;6.75;;
14686;SDS011;7431;49.440;11.084;2023-02-28T13:32:19;7.43;;;6.38;;
14686;SDS011;7431;49.440;11.084;2023-02-28T13:42:54;7.65;;;6.47;;
14686;SDS011;7431;49.440;11.084;2023-02-28T13:48:19;7.45;;;6.55;;
14686;SDS011;7431;49.440;11.084;2023-02-28T13:50:50;7.95;;;6.95;;
14686;SDS011;7431;49.440;11.084;2023-02-28T13:53:54;7.82;;;5.95;;
14686;SDS011;7431;49.440;11.084;2023-02-28T14:01:39;8.80;;;7.15;;
14686;SDS011;7431;49.440;11.084;2023-02-28T14:07:07;9.15;;;6.85;;
14686;SDS011;7431;49.440;11.084;2023-02-28T14:09:43;7.70;;;6.80;;
14686;SDS011;7431;49.440;11.084;2023-02-28T14:15:03;7.65;;;6.72;;
14686;SDS011;7431;49.440;11.084;2023-02-28T14:17:30;7.78;;;6.38;;
14686;SDS011;7431;49.440;11.084;2023-02-28T14:19:56;7.82;;;6.90;;
14686;SDS011;7431;49.440;11.084;2023-02-28T14:22:48;7.72;;;6.93;;
14686;SDS011;7431;49.440;11.084;2023-02-28T14:37:50;9.10;;;6.88;;
14686;SDS011;7431;49.440;11.084;2023-02-28T14:40:17;9.50;;;6.70;;
14686;SDS011;7431;49.440;11.084;2023-02-28T14:42:55;8.23;;;7.43;;
14686;SDS011;7431;49.440;11.084;2023-02-28T14:45:22;8.65;;;7.47;;
14686;SDS011;7431;49.440;11.084;2023-02-28T14:47:51;9.43;;;7.40;;
14686;SDS011;7431;49.440;11.084;2023-02-28T14:50:26;8.40;;;6.85;;
14686;SDS011;7431;49.440;11.084;2023-02-28T14:52:53;7.38;;;6.53;;
14686;SDS011;7431;49.440;11.084;2023-02-28T14:55:23;7.95;;;6.68;;
14686;SDS011;7431;49.440;11.084;2023-02-28T14:57:51;8.88;;;7.20;;
14686;SDS011;7431;49.440;11.084;2023-02-28T15:00:24;8.57;;;6.68;;
14686;SDS011;7431;49.440;11.084;2023-02-28T15:02:51;8.07;;;6.43;;
14686;SDS011;7431;49.440;11.084;2023-02-28T15:08:03;8.27;;;6.90;;
14686;SDS011;7431;49.440;11.084;2023-02-28T15:10:29;8.73;;;7.25;;
14686;SDS011;7431;49.440;11.084;2023-02-28T15:12:57;8.07;;;7.05;;
14686;SDS011;7431;49.440;11.084;2023-02-28T15:15:35;8.82;;;7.63;;
14686;SDS011;7431;49.440;11.084;2023-02-28T15:18:05;8.18;;;6.93;;
14686;SDS011;7431;49.440;11.084;2023-02-28T15:20:31;7.88;;;6.88;;
14686;SDS011;7431;49.440;11.084;2023-02-28T15:22:58;7.82;;;6.70;;
14686;SDS011;7431;49.440;11.084;2023-02-28T15:25:24;9.23;;;7.70;;
14686;SDS011;7431;49.440;11.084;2023-02-28T15:27:52;8.43;;;7.35;;
14686;SDS011;7431;49.440;11.084;2023-02-28T15:30:29;7.95;;;6.82;;
14686;SDS011;7431;49.440;11.084;2023-02-28T15:33:29;8.68;;;6.97;;
14686;SDS011;7431;49.440;11.084;2023-02-28T15:35:47;9.73;;;7.07;;
14686;SDS011;7431;49.440;11.084;2023-02-28T15:40:43;8.38;;;7.10;;
14686;SDS011;7431;49.440;11.084;2023-02-28T15:43:13;8.55;;;7.28;;
14686;SDS011;7431;49.440;11.084;2023-02-28T15:50:41;8.65;;;7.22;;
14686;SDS011;7431;49.440;11.084;2023-02-28T15:53:17;9.13;;;7.35;;
14686;SDS011;7431;49.440;11.084;2023-02-28T15:55:44;8.23;;;6.70;;
14686;SDS011;7431;49.440;11.084;2023-02-28T15:58:10;8.15;;;6.82;;
14686;SDS011;7431;49.440;11.084;2023-02-28T16:00:38;7.80;;;6.88;;
14686;SDS011;7431;49.440;11.084;2023-02-28T16:03:24;8.23;;;7.10;;
14686;SDS011;7431;49.440;11.084;2023-02-28T16:08:54;7.47;;;6.65;;
14686;SDS011;7431;49.440;11.084;2023-02-28T16:11:23;7.18;;;6.28;;
14686;SDS011;7431;49.440;11.084;2023-02-28T16:13:49;6.83;;;6.07;;
14686;SDS011;7431;49.440;11.084;2023-02-28T16:16:20;7.05;;;6.10;;
14686;SDS011;7431;49.440;11.084;2023-02-28T16:18:46;8.55;;;7.15;;
14686;SDS011;7431;49.440;11.084;2023-02-28T16:21:12;7.47;;;6.72;;
14686;SDS011;7431;49.440;11.084;2023-02-28T16:23:38;9.00;;;7.18;;
14686;SDS011;7431;49.440;11.084;2023-02-28T16:26:04;8.73;;;7.00;;
14686;SDS011;7431;49.440;11.084;2023-02-28T16:28:32;9.13;;;6.60;;
14686;SDS011;7431;49.440;11.084;2023-02-28T16:30:59;7.47;;;5.95;;
14686;SDS011;7431;49.440;11.084;2023-02-28T16:33:27;8.25;;;6.15;;
14686;SDS011;7431;49.440;11.084;2023-02-28T16:35:53;7.43;;;6.60;;
14686;SDS011;7431;49.440;11.084;2023-02-28T16:38:19;6.57;;;5.82;;
14686;SDS011;7431;49.440;11.084;2023-02-28T16:40:46;7.97;;;5.68;;
14686;SDS011;7431;49.440;11.084;2023-02-28T16:43:15;6.97;;;5.18;;
14686;SDS011;7431;49.440;11.084;2023-02-28T16:45:43;6.03;;;5.38;;
14686;SDS011;7431;49.440;11.084;2023-02-28T16:48:12;6.00;;;5.10;;
14686;SDS011;7431;49.440;11.084;2023-02-28T16:50:39;8.48;;;5.35;;
14686;SDS011;7431;49.440;11.084;2023-02-28T16:53:05;6.10;;;5.18;;
14686;SDS011;7431;49.440;11.084;2023-02-28T16:55:31;6.45;;;5.15;;
14686;SDS011;7431;49.440;11.084;2023-02-28T16:57:57;6.75;;;4.72;;
14686;SDS011;7431;49.440;11.084;2023-02-28T17:00:25;5.40;;;4.53;;
14686;SDS011;7431;49.440;11.084;2023-02-28T17:02:52;5.65;;;4.95;;
14686;SDS011;7431;49.440;11.084;2023-02-28T17:05:18;5.20;;;4.70;;
14686;SDS011;7431;49.440;11.084;2023-02-28T17:07:44;5.07;;;4.43;;
14686;SDS011;7431;49.440;11.084;2023-02-28T17:10:14;6.63;;;4.70;;
14686;SDS011;7431;49.440;11.084;2023-02-28T17:12:45;13.07;;;4.85;;
14686;SDS011;7431;49.440;11.084;2023-02-28T17:15:11;6.50;;;4.68;;
14686;SDS011;7431;49.440;11.084;2023-02-28T17:17:38;7.85;;;4.55;;
14686;SDS011;7431;49.440;11.084;2023-02-28T17:20:05;6.53;;;4.53;;